createdAt,value
2022-08-03T00:00:09.011Z,6.85
2022-08-03T00:00:46.432Z,4.65
2022-08-03T00:01:18.673Z,3.25
2022-08-03T00:01:50.478Z,6.72
2022-08-03T00:02:22.207Z,3.47
2022-08-03T00:02:53.900Z,3.92
2022-08-03T00:03:25.669Z,6.15
2022-08-03T00:03:57.297Z,4.97
2022-08-03T00:04:33.905Z,4.15
2022-08-03T00:05:08.372Z,6.38
2022-08-03T00:05:40.151Z,3.17
2022-08-03T00:06:36.492Z,3.22
2022-08-03T00:07:08.678Z,2.78
2022-08-03T00:07:41.148Z,2.35
2022-08-03T00:08:12.709Z,3.92
2022-08-03T00:08:44.327Z,4.05
2022-08-03T00:09:15.919Z,3.70
2022-08-03T00:09:47.460Z,4.10
2022-08-03T00:10:19.087Z,9.32
2022-08-03T00:10:50.786Z,3.88
2022-08-03T00:11:22.377Z,6.75
2022-08-03T00:11:53.958Z,5.13
2022-08-03T00:12:25.485Z,5.50
2022-08-03T00:12:57.163Z,2.47
2022-08-03T00:13:28.780Z,5.25
2022-08-03T00:14:00.770Z,5.43
2022-08-03T00:14:32.370Z,5.30
2022-08-03T00:15:04.430Z,3.10
2022-08-03T00:15:42.913Z,5.72
2022-08-03T00:16:14.720Z,3.55
2022-08-03T00:16:46.245Z,3.35
2022-08-03T00:17:17.805Z,4.82
2022-08-03T00:17:52.333Z,4.03
2022-08-03T00:18:25.548Z,2.33
2022-08-03T00:18:57.288Z,4.15
2022-08-03T00:19:28.925Z,2.90
2022-08-03T00:20:00.482Z,3.22
2022-08-03T00:20:32.231Z,2.95
2022-08-03T00:21:04.477Z,6.50
2022-08-03T00:21:36.091Z,2.47
2022-08-03T00:22:07.664Z,4.68
2022-08-03T00:22:39.540Z,3.08
2022-08-03T00:23:11.448Z,7.78
2022-08-03T00:23:51.437Z,2.88
2022-08-03T00:24:24.428Z,7.30
2022-08-03T00:24:56.017Z,5.75
2022-08-03T00:25:27.829Z,3.88
2022-08-03T00:25:59.407Z,6.38
2022-08-03T00:26:31.745Z,2.90
2022-08-03T00:27:03.782Z,3.90
2022-08-03T00:27:38.066Z,2.75
2022-08-03T00:28:09.969Z,5.07
2022-08-03T00:28:42.018Z,2.58
2022-08-03T00:29:13.550Z,3.70
2022-08-03T00:29:59.409Z,9.63
2022-08-03T00:30:32.664Z,3.47
2022-08-03T00:31:04.227Z,4.65
2022-08-03T00:31:51.582Z,3.47
2022-08-03T00:32:24.795Z,2.60
2022-08-03T00:32:56.576Z,3.95
2022-08-03T00:33:28.296Z,3.13
2022-08-03T00:34:29.153Z,3.08
2022-08-03T00:35:09.859Z,3.38
2022-08-03T00:35:50.495Z,2.97
2022-08-03T00:36:23.527Z,2.50
2022-08-03T00:36:55.076Z,3.50
2022-08-03T00:37:40.908Z,2.85
2022-08-03T00:38:13.383Z,6.38
2022-08-03T00:38:44.956Z,3.53
2022-08-03T00:39:16.502Z,4.05
2022-08-03T00:39:48.123Z,2.88
2022-08-03T00:40:20.481Z,4.88
2022-08-03T00:40:52.084Z,3.38
2022-08-03T00:41:23.834Z,7.60
2022-08-03T00:41:55.382Z,6.90
2022-08-03T00:42:28.507Z,5.70
2022-08-03T00:43:05.143Z,4.20
2022-08-03T00:43:36.677Z,5.00
2022-08-03T00:44:08.259Z,4.95
2022-08-03T00:44:41.032Z,4.05
2022-08-03T00:45:13.455Z,3.20
2022-08-03T00:45:45.171Z,6.43
2022-08-03T00:46:21.422Z,4.32
2022-08-03T00:46:53.582Z,4.40
2022-08-03T00:47:25.129Z,3.67
2022-08-03T00:47:57.353Z,5.95
2022-08-03T00:48:33.053Z,34.88
2022-08-03T00:49:07.820Z,47.55
2022-08-03T00:49:42.850Z,46.50
2022-08-03T00:50:17.826Z,43.65
2022-08-03T00:50:49.659Z,27.27
2022-08-03T00:51:25.644Z,41.60
2022-08-03T00:51:57.198Z,25.83
2022-08-03T00:52:28.761Z,20.90
2022-08-03T00:53:01.239Z,31.38
2022-08-03T00:53:34.906Z,28.27
2022-08-03T00:54:06.415Z,31.38
2022-08-03T00:54:38.453Z,22.80
2022-08-03T00:55:10.851Z,13.93
2022-08-03T00:55:42.513Z,13.98
2022-08-03T00:56:15.312Z,13.52
2022-08-03T00:56:59.292Z,9.88
2022-08-03T00:57:33.104Z,10.48
2022-08-03T00:58:08.093Z,7.15
2022-08-03T00:58:39.617Z,4.93
2022-08-03T00:59:11.415Z,5.60
2022-08-03T00:59:46.132Z,6.47
2022-08-03T01:00:21.195Z,5.28
2022-08-03T01:00:54.486Z,11.98
2022-08-03T01:01:26.223Z,7.45
2022-08-03T01:02:03.919Z,7.95
2022-08-03T01:02:35.716Z,5.97
2022-08-03T01:03:08.633Z,5.15
2022-08-03T01:03:40.932Z,4.53
2022-08-03T01:04:12.594Z,2.92
2022-08-03T01:04:44.122Z,7.07
2022-08-03T01:05:15.971Z,5.03
2022-08-03T01:06:03.365Z,4.18
2022-08-03T01:07:10.706Z,6.15
2022-08-03T01:07:52.860Z,4.65
2022-08-03T01:08:43.052Z,4.88
2022-08-03T01:09:43.888Z,4.38
2022-08-03T01:10:37.704Z,4.55
2022-08-03T01:11:15.767Z,2.33
2022-08-03T01:12:01.259Z,3.15
2022-08-03T01:12:40.715Z,5.68
2022-08-03T01:14:03.583Z,2.97
2022-08-03T01:15:11.045Z,2.47
2022-08-03T01:16:05.724Z,2.80
2022-08-03T01:17:14.487Z,4.07
2022-08-03T01:17:52.303Z,2.58
2022-08-03T01:18:26.373Z,5.97
2022-08-03T01:19:24.093Z,3.17
2022-08-03T01:20:08.471Z,3.38
2022-08-03T01:20:44.577Z,12.25
2022-08-03T01:21:29.580Z,5.13
2022-08-03T01:22:25.052Z,2.90
2022-08-03T01:23:24.541Z,7.75
2022-08-03T01:24:23.847Z,4.80
2022-08-03T01:25:04.001Z,6.25
2022-08-03T01:25:54.504Z,8.20
2022-08-03T01:26:57.106Z,3.05
2022-08-03T01:28:08.443Z,2.22
2022-08-03T01:28:45.655Z,6.10
2022-08-03T01:29:54.747Z,9.02
2022-08-03T01:30:34.026Z,5.45
2022-08-03T01:31:08.380Z,6.75
2022-08-03T01:32:53.593Z,10.05
2022-08-03T01:32:59.325Z,5.57
2022-08-03T01:33:42.180Z,8.35
2022-08-03T01:34:16.041Z,3.60
2022-08-03T01:35:02.014Z,4.40
2022-08-03T01:36:00.027Z,4.38
2022-08-03T01:36:38.636Z,6.50
2022-08-03T01:37:11.344Z,7.72
2022-08-03T01:37:48.472Z,2.67
2022-08-03T01:38:29.646Z,3.70
2022-08-03T01:39:09.341Z,4.55
2022-08-03T01:39:41.562Z,2.88
2022-08-03T01:40:14.460Z,4.55
2022-08-03T01:40:47.097Z,4.53
2022-08-03T01:41:25.858Z,3.55
2022-08-03T01:42:00.330Z,2.70
2022-08-03T01:42:32.798Z,4.25
2022-08-03T01:43:06.550Z,4.55
2022-08-03T01:44:26.732Z,2.97
2022-08-03T01:44:51.835Z,3.30
2022-08-03T01:45:24.453Z,6.07
2022-08-03T01:45:57.369Z,5.50
2022-08-03T01:46:31.260Z,5.35
2022-08-03T01:47:03.757Z,7.90
2022-08-03T01:47:35.984Z,6.68
2022-08-03T01:48:07.616Z,4.57
2022-08-03T01:48:42.971Z,3.80
2022-08-03T01:49:15.393Z,4.28
2022-08-03T01:49:48.238Z,4.60
2022-08-03T01:50:23.683Z,5.35
2022-08-03T01:50:55.854Z,3.13
2022-08-03T01:51:56.111Z,3.28
2022-08-03T01:52:21.736Z,2.72
2022-08-03T01:52:54.976Z,4.82
2022-08-03T01:53:26.775Z,3.45
2022-08-03T01:53:58.974Z,5.75
2022-08-03T01:54:31.692Z,3.83
2022-08-03T01:55:04.310Z,8.07
2022-08-03T01:55:36.769Z,4.53
2022-08-03T01:56:08.782Z,5.30
2022-08-03T01:56:41.503Z,3.88
2022-08-03T01:57:13.512Z,6.90
2022-08-03T01:58:06.148Z,4.75
2022-08-03T01:58:37.855Z,3.45
2022-08-03T01:59:11.671Z,5.00
2022-08-03T01:59:44.833Z,4.85
2022-08-03T02:00:16.947Z,5.65
2022-08-03T02:00:51.554Z,6.88
2022-08-03T02:01:24.008Z,3.88
2022-08-03T02:02:15.624Z,6.57
2022-08-03T02:02:49.633Z,3.75
2022-08-03T02:03:23.319Z,5.72
2022-08-03T02:04:00.845Z,3.50
2022-08-03T02:04:33.281Z,2.55
2022-08-03T02:05:10.875Z,4.18
2022-08-03T02:05:45.463Z,5.18
2022-08-03T02:07:00.305Z,5.45
2022-08-03T02:07:12.098Z,4.25
2022-08-03T02:07:45.275Z,5.70
2022-08-03T02:08:18.435Z,6.18
2022-08-03T02:08:51.674Z,9.23
2022-08-03T02:09:23.892Z,7.10
2022-08-03T02:09:55.980Z,3.90
2022-08-03T02:10:35.509Z,4.53
2022-08-03T02:11:07.979Z,2.72
2022-08-03T02:11:40.385Z,14.82
2022-08-03T02:12:14.730Z,3.97
2022-08-03T02:12:51.024Z,7.47
2022-08-03T02:13:24.843Z,4.32
2022-08-03T02:13:58.488Z,4.65
2022-08-03T02:14:31.207Z,11.85
2022-08-03T02:15:03.388Z,4.15
2022-08-03T02:15:37.462Z,3.13
2022-08-03T02:16:09.356Z,3.63
2022-08-03T02:16:40.880Z,11.75
2022-08-03T02:17:12.906Z,6.25
2022-08-03T02:17:46.035Z,2.50
2022-08-03T02:18:18.520Z,7.15
2022-08-03T02:18:50.739Z,7.22
2022-08-03T02:19:22.935Z,3.50
2022-08-03T02:19:56.654Z,5.53
2022-08-03T02:20:28.611Z,3.10
2022-08-03T02:21:01.568Z,3.05
2022-08-03T02:21:57.494Z,5.47
2022-08-03T02:22:33.909Z,3.15
2022-08-03T02:23:06.696Z,4.90
2022-08-03T02:23:38.607Z,4.70
2022-08-03T02:24:11.020Z,4.32
2022-08-03T02:24:42.589Z,4.55
2022-08-03T02:25:20.886Z,4.47
2022-08-03T02:25:59.960Z,3.42
2022-08-03T02:26:35.654Z,5.82
2022-08-03T02:27:13.397Z,6.47
2022-08-03T02:28:09.039Z,5.28
2022-08-03T02:28:43.503Z,5.47
2022-08-03T02:29:20.632Z,4.35
2022-08-03T02:30:14.290Z,5.93
2022-08-03T02:30:51.886Z,4.75
2022-08-03T02:31:29.675Z,3.28
2022-08-03T02:32:04.507Z,5.13
2022-08-03T02:32:39.248Z,4.63
2022-08-03T02:33:32.527Z,6.28
2022-08-03T02:34:09.025Z,4.25
2022-08-03T02:34:42.497Z,6.80
2022-08-03T02:35:15.961Z,6.47
2022-08-03T02:35:47.665Z,5.28
2022-08-03T02:36:25.904Z,5.35
2022-08-03T02:37:00.331Z,5.35
2022-08-03T02:37:34.792Z,6.72
2022-08-03T02:38:08.397Z,4.32
2022-08-03T02:38:43.153Z,3.90
2022-08-03T02:39:17.599Z,4.85
2022-08-03T02:39:49.303Z,2.80
2022-08-03T02:40:21.668Z,4.75
2022-08-03T02:40:55.619Z,5.22
2022-08-03T02:41:32.294Z,5.55
2022-08-03T02:42:08.620Z,3.80
2022-08-03T02:42:41.809Z,3.72
2022-08-03T02:43:18.477Z,4.55
2022-08-03T02:44:06.171Z,3.95
2022-08-03T02:44:39.835Z,2.60
2022-08-03T02:45:15.663Z,4.95
2022-08-03T02:45:49.563Z,5.93
2022-08-03T02:46:31.223Z,4.18
2022-08-03T02:47:05.625Z,8.75
2022-08-03T02:47:53.238Z,7.95
2022-08-03T02:48:29.368Z,3.63
2022-08-03T02:49:40.510Z,3.63
2022-08-03T02:49:54.768Z,2.88
2022-08-03T02:50:27.566Z,6.40
2022-08-03T02:50:59.969Z,4.40
2022-08-03T02:51:34.097Z,2.92
2022-08-03T02:52:13.108Z,3.80
2022-08-03T02:52:46.111Z,3.17
2022-08-03T02:53:18.220Z,3.03
2022-08-03T02:53:51.667Z,4.07
2022-08-03T02:54:25.050Z,2.92
2022-08-03T02:55:00.340Z,5.50
2022-08-03T02:55:34.497Z,6.07
2022-08-03T02:56:07.077Z,3.35
2022-08-03T02:56:39.453Z,2.80
2022-08-03T02:57:11.564Z,4.70
2022-08-03T02:57:44.818Z,5.15
2022-08-03T02:58:18.714Z,15.95
2022-08-03T02:58:50.431Z,3.65
2022-08-03T02:59:22.614Z,3.50
2022-08-03T02:59:55.570Z,3.75
2022-08-03T03:00:28.481Z,7.13
2022-08-03T03:01:00.557Z,6.68
2022-08-03T03:01:32.275Z,7.82
2022-08-03T03:02:04.429Z,3.47
2022-08-03T03:02:36.941Z,3.05
2022-08-03T03:03:09.620Z,3.88
2022-08-03T03:03:44.912Z,3.38
2022-08-03T03:04:17.403Z,3.08
2022-08-03T03:05:50.885Z,2.50
2022-08-03T03:05:53.244Z,6.57
2022-08-03T03:06:29.231Z,4.75
2022-08-03T03:07:03.755Z,6.80
2022-08-03T03:07:51.255Z,5.22
2022-08-03T03:08:28.094Z,5.15
2022-08-03T03:09:00.570Z,4.10
2022-08-03T03:09:41.663Z,3.70
2022-08-03T03:10:14.913Z,3.60
2022-08-03T03:10:47.416Z,5.25
2022-08-03T03:11:21.116Z,3.65
2022-08-03T03:11:53.377Z,2.78
2022-08-03T03:12:26.161Z,4.53
2022-08-03T03:12:58.627Z,3.25
2022-08-03T03:13:31.185Z,4.53
2022-08-03T03:14:02.816Z,4.57
2022-08-03T03:14:34.846Z,5.68
2022-08-03T03:15:06.820Z,4.40
2022-08-03T03:15:39.426Z,2.78
2022-08-03T03:16:13.523Z,3.90
2022-08-03T03:16:47.141Z,5.35
2022-08-03T03:17:24.509Z,5.25
2022-08-03T03:17:56.732Z,4.90
2022-08-03T03:18:29.106Z,5.07
2022-08-03T03:19:01.997Z,3.08
2022-08-03T03:19:34.371Z,4.10
2022-08-03T03:20:07.024Z,3.80
2022-08-03T03:20:39.321Z,6.40
2022-08-03T03:21:11.382Z,5.03
2022-08-03T03:21:44.112Z,2.92
2022-08-03T03:22:16.229Z,4.18
2022-08-03T03:22:51.754Z,2.72
2022-08-03T03:23:25.051Z,3.53
2022-08-03T03:23:57.034Z,4.50
2022-08-03T03:24:29.773Z,5.68
2022-08-03T03:25:02.074Z,3.33
2022-08-03T03:25:34.517Z,3.97
2022-08-03T03:26:07.229Z,3.30
2022-08-03T03:26:42.392Z,6.55
2022-08-03T03:27:16.650Z,3.85
2022-08-03T03:27:49.494Z,4.95
2022-08-03T03:28:25.557Z,4.80
2022-08-03T03:28:57.160Z,4.13
2022-08-03T03:29:28.868Z,4.32
2022-08-03T03:30:00.616Z,3.33
2022-08-03T03:30:32.169Z,3.35
2022-08-03T03:31:06.233Z,3.10
2022-08-03T03:31:37.807Z,3.45
2022-08-03T03:32:09.553Z,3.45
2022-08-03T03:32:41.552Z,3.72
2022-08-03T03:33:13.222Z,2.67
2022-08-03T03:33:44.882Z,2.38
2022-08-03T03:34:16.592Z,5.38
2022-08-03T03:34:48.145Z,4.72
2022-08-03T03:35:19.767Z,3.95
2022-08-03T03:35:51.915Z,11.98
2022-08-03T03:36:23.491Z,4.00
2022-08-03T03:36:55.143Z,5.00
2022-08-03T03:37:27.029Z,4.57
2022-08-03T03:37:58.660Z,4.15
2022-08-03T03:38:30.549Z,6.82
2022-08-03T03:39:15.265Z,3.67
2022-08-03T03:39:47.759Z,3.75
2022-08-03T03:40:19.566Z,3.72
2022-08-03T03:40:51.319Z,3.05
2022-08-03T03:41:23.037Z,2.42
2022-08-03T03:41:54.897Z,2.92
2022-08-03T03:42:26.862Z,6.65
2022-08-03T03:42:58.396Z,4.00
2022-08-03T03:43:30.027Z,4.93
2022-08-03T03:44:01.548Z,5.40
2022-08-03T03:44:33.164Z,4.72
2022-08-03T03:45:06.424Z,3.00
2022-08-03T03:45:38.520Z,5.18
2022-08-03T03:46:13.000Z,4.72
2022-08-03T03:46:44.613Z,4.57
2022-08-03T03:47:16.628Z,3.22
2022-08-03T03:47:48.265Z,6.82
2022-08-03T03:48:20.093Z,8.10
2022-08-03T03:48:51.689Z,4.18
2022-08-03T03:49:23.579Z,3.70
2022-08-03T03:49:55.146Z,6.25
2022-08-03T03:50:30.070Z,4.18
2022-08-03T03:51:01.795Z,5.70
2022-08-03T03:51:33.501Z,3.28
2022-08-03T03:52:05.349Z,3.15
2022-08-03T03:52:37.184Z,3.10
2022-08-03T03:53:10.747Z,2.63
2022-08-03T03:53:54.912Z,5.07
2022-08-03T03:54:29.059Z,3.78
2022-08-03T03:55:01.640Z,5.88
2022-08-03T03:55:33.562Z,3.97
2022-08-03T03:56:05.352Z,3.78
2022-08-03T03:56:36.987Z,5.25
2022-08-03T03:57:10.451Z,3.35
2022-08-03T03:57:44.807Z,4.63
2022-08-03T03:58:17.178Z,2.67
2022-08-03T03:58:48.898Z,4.70
2022-08-03T03:59:20.489Z,5.50
2022-08-03T03:59:52.359Z,4.80
2022-08-03T04:00:23.910Z,3.17
2022-08-03T04:00:55.664Z,7.00
2022-08-03T04:01:27.466Z,7.35
2022-08-03T04:01:59.459Z,3.78
2022-08-03T04:02:31.070Z,3.97
2022-08-03T04:03:02.832Z,2.78
2022-08-03T04:03:35.758Z,5.85
2022-08-03T04:04:26.125Z,4.75
2022-08-03T04:05:16.255Z,5.82
2022-08-03T04:06:06.217Z,5.72
2022-08-03T04:06:56.157Z,4.18
2022-08-03T04:08:06.574Z,15.95
2022-08-03T04:08:56.870Z,3.80
2022-08-03T04:09:46.826Z,4.40
2022-08-03T04:10:41.514Z,3.30
2022-08-03T04:11:28.990Z,7.88
2022-08-03T04:12:01.838Z,5.88
2022-08-03T04:12:34.075Z,3.53
2022-08-03T04:13:10.180Z,4.72
2022-08-03T04:13:53.553Z,7.22
2022-08-03T04:14:36.534Z,4.25
2022-08-03T04:15:09.122Z,3.28
2022-08-03T04:15:41.674Z,3.63
2022-08-03T04:16:14.858Z,6.53
2022-08-03T04:16:50.216Z,3.83
2022-08-03T04:17:23.937Z,5.35
2022-08-03T04:17:58.035Z,4.20
2022-08-03T04:18:31.755Z,4.50
2022-08-03T04:19:08.131Z,5.22
2022-08-03T04:19:44.189Z,5.30
2022-08-03T04:20:17.366Z,6.05
2022-08-03T04:20:49.894Z,5.85
2022-08-03T04:21:23.444Z,3.45
2022-08-03T04:21:59.031Z,4.85
2022-08-03T04:22:32.600Z,4.63
2022-08-03T04:23:04.651Z,6.50
2022-08-03T04:23:48.252Z,8.20
2022-08-03T04:24:20.411Z,4.88
2022-08-03T04:25:00.346Z,5.68
2022-08-03T04:25:34.279Z,6.45
2022-08-03T04:26:10.014Z,5.72
2022-08-03T04:26:43.422Z,5.90
2022-08-03T04:27:17.093Z,5.38
2022-08-03T04:28:29.239Z,6.30
2022-08-03T04:28:44.864Z,4.30
2022-08-03T04:29:17.169Z,3.60
2022-08-03T04:29:52.235Z,7.45
2022-08-03T04:30:24.588Z,3.63
2022-08-03T04:30:56.903Z,4.97
2022-08-03T04:31:29.614Z,3.33
2022-08-03T04:32:08.714Z,3.45
2022-08-03T04:32:45.812Z,5.00
2022-08-03T04:33:18.834Z,3.67
2022-08-03T04:33:51.993Z,2.88
2022-08-03T04:34:23.634Z,3.67
2022-08-03T04:34:55.219Z,7.45
2022-08-03T04:35:58.632Z,4.80
2022-08-03T04:36:24.200Z,6.63
2022-08-03T04:36:59.622Z,4.07
2022-08-03T04:37:39.397Z,4.05
2022-08-03T04:38:13.497Z,10.18
2022-08-03T04:38:55.993Z,3.85
2022-08-03T04:39:30.365Z,4.60
2022-08-03T04:40:03.801Z,4.50
2022-08-03T04:40:37.502Z,8.98
2022-08-03T04:41:09.431Z,6.63
2022-08-03T04:42:07.165Z,2.80
2022-08-03T04:42:37.285Z,8.05
2022-08-03T04:43:10.373Z,7.93
2022-08-03T04:43:42.325Z,8.57
2022-08-03T04:44:14.870Z,3.92
2022-08-03T04:44:47.007Z,6.88
2022-08-03T04:45:19.389Z,7.63
2022-08-03T04:45:51.486Z,4.53
2022-08-03T04:46:25.932Z,10.20
2022-08-03T04:46:58.102Z,4.78
2022-08-03T04:47:32.586Z,6.10
2022-08-03T04:48:05.003Z,6.57
2022-08-03T04:48:36.929Z,4.65
2022-08-03T04:49:09.331Z,6.35
2022-08-03T04:49:43.732Z,5.47
2022-08-03T04:50:20.875Z,6.40
2022-08-03T04:51:10.886Z,6.28
2022-08-03T04:51:42.836Z,9.35
2022-08-03T04:52:14.798Z,5.72
2022-08-03T04:52:46.702Z,5.78
2022-08-03T04:53:18.240Z,6.07
2022-08-03T04:53:51.347Z,5.70
2022-08-03T04:54:24.656Z,6.32
2022-08-03T04:54:56.837Z,7.47
2022-08-03T04:55:30.006Z,5.70
2022-08-03T04:56:07.817Z,8.15
2022-08-03T04:56:43.317Z,9.68
2022-08-03T04:57:22.205Z,8.10
2022-08-03T04:57:54.316Z,9.60
2022-08-03T04:58:25.812Z,9.63
2022-08-03T04:58:57.367Z,6.50
2022-08-03T04:59:28.872Z,8.55
2022-08-03T05:00:03.186Z,9.00
2022-08-03T05:00:35.314Z,6.72
2022-08-03T05:01:06.834Z,5.43
2022-08-03T05:01:40.642Z,8.85
2022-08-03T05:02:12.214Z,7.68
2022-08-03T05:02:43.734Z,15.30
2022-08-03T05:03:19.418Z,10.65
2022-08-03T05:03:55.266Z,10.48
2022-08-03T05:04:26.808Z,6.75
2022-08-03T05:04:58.712Z,9.32
2022-08-03T05:05:37.827Z,7.65
2022-08-03T05:06:21.761Z,4.80
2022-08-03T05:06:56.738Z,5.40
2022-08-03T05:07:35.559Z,5.28
2022-08-03T05:08:11.067Z,5.38
2022-08-03T05:08:47.216Z,5.15
2022-08-03T05:09:49.624Z,4.68
2022-08-03T05:10:16.069Z,9.23
2022-08-03T05:10:48.547Z,9.73
2022-08-03T05:11:20.216Z,4.85
2022-08-03T05:11:51.759Z,10.80
2022-08-03T05:12:23.808Z,6.45
2022-08-03T05:12:55.361Z,8.40
2022-08-03T05:13:26.951Z,5.78
2022-08-03T05:13:58.462Z,7.75
2022-08-03T05:14:30.353Z,11.15
2022-08-03T05:15:02.178Z,10.27
2022-08-03T05:15:33.773Z,24.27
2022-08-03T05:16:14.976Z,9.30
2022-08-03T05:16:46.583Z,8.60
2022-08-03T05:17:19.522Z,13.95
2022-08-03T05:17:51.073Z,9.13
2022-08-03T05:18:22.618Z,8.27
2022-08-03T05:18:54.221Z,11.30
2022-08-03T05:19:25.735Z,10.02
2022-08-03T05:19:57.436Z,5.78
2022-08-03T05:20:28.966Z,12.35
2022-08-03T05:21:00.487Z,14.50
2022-08-03T05:21:51.967Z,11.85
2022-08-03T05:22:24.024Z,7.60
2022-08-03T05:22:55.617Z,10.55
2022-08-03T05:23:27.339Z,6.35
2022-08-03T05:23:58.861Z,9.02
2022-08-03T05:24:30.465Z,12.77
2022-08-03T05:25:02.396Z,7.13
2022-08-03T05:25:33.955Z,8.13
2022-08-03T05:26:05.523Z,12.02
2022-08-03T05:26:37.261Z,8.65
2022-08-03T05:27:08.803Z,9.90
2022-08-03T05:27:40.423Z,6.93
2022-08-03T05:28:11.930Z,14.07
2022-08-03T05:28:51.380Z,6.97
2022-08-03T05:29:23.241Z,10.15
2022-08-03T05:29:56.834Z,8.05
2022-08-03T05:30:53.382Z,8.73
2022-08-03T05:31:24.973Z,6.03
2022-08-03T05:31:56.560Z,6.40
2022-08-03T05:32:28.114Z,9.52
2022-08-03T05:33:00.030Z,7.78
2022-08-03T05:33:31.640Z,8.02
2022-08-03T05:34:03.171Z,11.23
2022-08-03T05:34:34.805Z,11.02
2022-08-03T05:35:56.072Z,9.05
2022-08-03T05:36:03.144Z,5.47
2022-08-03T05:36:35.346Z,7.00
2022-08-03T05:37:07.423Z,15.23
2022-08-03T05:37:39.605Z,7.10
2022-08-03T05:38:34.861Z,7.10
2022-08-03T05:39:06.948Z,7.22
2022-08-03T05:39:38.477Z,13.98
2022-08-03T05:40:10.698Z,6.15
2022-08-03T05:40:56.933Z,10.25
2022-08-03T05:41:37.259Z,6.70
2022-08-03T05:42:09.097Z,10.45
2022-08-03T05:42:40.793Z,9.30
2022-08-03T05:43:12.290Z,9.73
2022-08-03T05:43:44.867Z,7.20
2022-08-03T05:44:16.390Z,6.22
2022-08-03T05:44:47.909Z,12.60
2022-08-03T05:45:19.942Z,8.52
2022-08-03T05:46:12.312Z,10.98
2022-08-03T05:46:43.080Z,6.75
2022-08-03T05:47:14.771Z,7.95
2022-08-03T05:47:46.351Z,6.65
2022-08-03T05:48:17.917Z,7.13
2022-08-03T05:48:49.756Z,8.57
2022-08-03T05:49:21.323Z,11.05
2022-08-03T05:49:52.862Z,8.02
2022-08-03T05:50:24.465Z,10.95
2022-08-03T05:50:56.079Z,7.65
2022-08-03T05:51:28.908Z,7.47
2022-08-03T05:52:14.056Z,8.77
2022-08-03T05:52:49.481Z,11.40
2022-08-03T05:53:21.493Z,11.23
2022-08-03T05:53:53.062Z,6.22
2022-08-03T05:54:24.647Z,10.32
2022-08-03T05:55:16.645Z,9.70
2022-08-03T05:55:52.618Z,11.90
2022-08-03T05:56:26.435Z,12.05
2022-08-03T05:56:58.052Z,6.28
2022-08-03T05:57:29.691Z,8.05
2022-08-03T05:58:03.803Z,7.20
2022-08-03T05:58:42.811Z,11.60
2022-08-03T05:59:37.139Z,9.18
2022-08-03T06:00:07.989Z,7.95
2022-08-03T06:00:43.912Z,9.70
2022-08-03T06:01:16.977Z,18.65
2022-08-03T06:01:48.851Z,11.43
2022-08-03T06:02:20.424Z,9.77
2022-08-03T06:02:51.930Z,11.70
2022-08-03T06:03:23.535Z,12.95
2022-08-03T06:03:55.129Z,8.35
2022-08-03T06:04:26.656Z,10.07
2022-08-03T06:04:58.263Z,11.57
2022-08-03T06:05:29.971Z,11.75
2022-08-03T06:06:01.597Z,9.73
2022-08-03T06:06:33.155Z,5.10
2022-08-03T06:07:04.675Z,8.55
2022-08-03T06:07:36.369Z,9.05
2022-08-03T06:08:07.939Z,10.13
2022-08-03T06:08:40.860Z,4.90
2022-08-03T06:09:12.400Z,9.23
2022-08-03T06:10:34.492Z,9.13
2022-08-03T06:10:38.343Z,6.68
2022-08-03T06:11:13.623Z,10.18
2022-08-03T06:11:45.224Z,6.30
2022-08-03T06:12:17.836Z,7.70
2022-08-03T06:12:50.927Z,18.10
2022-08-03T06:13:22.524Z,5.03
2022-08-03T06:13:54.243Z,11.00
2022-08-03T06:14:25.890Z,14.60
2022-08-03T06:14:57.503Z,12.55
2022-08-03T06:15:29.195Z,5.82
2022-08-03T06:16:00.724Z,10.10
2022-08-03T06:16:32.461Z,10.07
2022-08-03T06:17:04.023Z,6.72
2022-08-03T06:17:44.857Z,11.93
2022-08-03T06:18:47.888Z,11.75
2022-08-03T06:19:19.488Z,5.75
2022-08-03T06:19:53.972Z,10.98
2022-08-03T06:20:27.248Z,8.70
2022-08-03T06:21:09.461Z,11.38
2022-08-03T06:21:47.349Z,7.03
2022-08-03T06:22:19.343Z,8.93
2022-08-03T06:23:00.126Z,8.05
2022-08-03T06:23:37.870Z,10.00
2022-08-03T06:24:25.115Z,11.18
2022-08-03T06:24:56.756Z,7.40
2022-08-03T06:25:29.366Z,7.35
2022-08-03T06:26:01.829Z,11.52
2022-08-03T06:26:33.383Z,12.73
2022-08-03T06:27:05.050Z,11.60
2022-08-03T06:27:40.018Z,10.18
2022-08-03T06:28:35.402Z,9.40
2022-08-03T06:29:05.632Z,11.20
2022-08-03T06:29:40.370Z,12.38
2022-08-03T06:30:12.570Z,9.15
2022-08-03T06:30:44.996Z,15.20
2022-08-03T06:31:16.497Z,9.80
2022-08-03T06:31:48.232Z,5.03
2022-08-03T06:32:22.822Z,6.40
2022-08-03T06:32:54.889Z,8.85
2022-08-03T06:34:30.324Z,11.73
2022-08-03T06:34:33.976Z,9.27
2022-08-03T06:35:07.936Z,8.15
2022-08-03T06:35:39.497Z,5.82
2022-08-03T06:36:14.263Z,9.45
2022-08-03T06:36:48.446Z,8.45
2022-08-03T06:37:19.953Z,7.47
2022-08-03T06:37:51.793Z,8.13
2022-08-03T06:38:23.427Z,6.07
2022-08-03T06:38:54.928Z,9.18
2022-08-03T06:39:26.430Z,12.48
2022-08-03T06:39:58.118Z,11.00
2022-08-03T06:40:31.255Z,8.30
2022-08-03T06:41:02.843Z,6.93
2022-08-03T06:41:38.257Z,8.85
2022-08-03T06:42:16.580Z,6.68
2022-08-03T06:42:48.259Z,6.38
2022-08-03T06:43:22.210Z,6.65
2022-08-03T06:44:03.485Z,7.93
2022-08-03T06:44:37.585Z,10.52
2022-08-03T06:45:09.789Z,11.77
2022-08-03T06:45:42.236Z,8.07
2022-08-03T06:46:13.901Z,11.60
2022-08-03T06:46:45.498Z,10.32
2022-08-03T06:47:17.273Z,6.40
2022-08-03T06:48:00.255Z,9.05
2022-08-03T06:48:31.933Z,7.25
2022-08-03T06:49:03.615Z,10.13
2022-08-03T06:49:35.380Z,6.22
2022-08-03T06:50:16.445Z,8.68
2022-08-03T06:50:49.495Z,6.43
2022-08-03T06:51:21.039Z,7.32
2022-08-03T06:52:12.631Z,14.77
2022-08-03T06:53:04.790Z,12.13
2022-08-03T06:53:36.516Z,5.18
2022-08-03T06:54:08.120Z,4.40
2022-08-03T06:54:39.640Z,12.07
2022-08-03T06:55:11.982Z,10.35
2022-08-03T06:55:43.520Z,9.95
2022-08-03T06:56:15.040Z,9.38
2022-08-03T06:56:46.556Z,5.00
2022-08-03T06:57:19.214Z,10.68
2022-08-03T06:57:50.821Z,11.43
2022-08-03T06:58:22.805Z,5.57
2022-08-03T06:58:54.634Z,7.57
2022-08-03T07:00:09.298Z,6.93
2022-08-03T07:00:18.215Z,6.70
2022-08-03T07:00:49.859Z,11.02
2022-08-03T07:01:21.488Z,6.57
2022-08-03T07:01:53.079Z,11.93
2022-08-03T07:02:24.758Z,9.10
2022-08-03T07:03:00.022Z,7.82
2022-08-03T07:03:31.613Z,8.07
2022-08-03T07:04:04.642Z,9.52
2022-08-03T07:04:36.286Z,8.30
2022-08-03T07:05:09.658Z,10.27
2022-08-03T07:05:42.323Z,17.55
2022-08-03T07:06:13.866Z,10.70
2022-08-03T07:06:45.392Z,12.27
2022-08-03T07:07:17.551Z,8.30
2022-08-03T07:07:49.469Z,8.38
2022-08-03T07:08:33.107Z,4.63
2022-08-03T07:09:06.016Z,13.70
2022-08-03T07:09:37.569Z,12.52
2022-08-03T07:10:09.692Z,10.77
2022-08-03T07:10:41.337Z,6.40
2022-08-03T07:11:13.787Z,9.07
2022-08-03T07:11:45.372Z,7.38
2022-08-03T07:12:17.021Z,15.63
2022-08-03T07:12:55.698Z,14.80
2022-08-03T07:13:28.451Z,11.73
2022-08-03T07:14:00.006Z,14.68
2022-08-03T07:14:31.550Z,12.43
2022-08-03T07:15:04.529Z,8.88
2022-08-03T07:15:38.319Z,7.38
2022-08-03T07:16:26.770Z,8.80
2022-08-03T07:16:58.285Z,5.43
2022-08-03T07:17:31.519Z,8.65
2022-08-03T07:18:03.185Z,8.98
2022-08-03T07:18:38.920Z,13.48
2022-08-03T07:19:10.502Z,8.73
2022-08-03T07:19:42.087Z,9.82
2022-08-03T07:20:15.203Z,8.52
2022-08-03T07:20:49.812Z,12.43
2022-08-03T07:21:21.311Z,10.13
2022-08-03T07:21:53.627Z,8.63
2022-08-03T07:22:25.440Z,19.10
2022-08-03T07:22:56.934Z,8.20
2022-08-03T07:23:28.727Z,7.93
2022-08-03T07:24:00.249Z,9.48
2022-08-03T07:24:31.811Z,9.95
2022-08-03T07:25:04.956Z,6.28
2022-08-03T07:25:37.280Z,5.97
2022-08-03T07:26:08.816Z,9.82
2022-08-03T07:26:40.365Z,10.63
2022-08-03T07:27:12.050Z,10.18
2022-08-03T07:27:51.608Z,12.27
2022-08-03T07:28:23.441Z,6.03
2022-08-03T07:28:55.047Z,7.15
2022-08-03T07:29:26.638Z,5.55
2022-08-03T07:29:58.984Z,8.25
2022-08-03T07:30:30.629Z,8.95
2022-08-03T07:31:02.180Z,13.20
2022-08-03T07:31:34.410Z,9.05
2022-08-03T07:32:06.211Z,14.57
2022-08-03T07:32:37.888Z,14.82
2022-08-03T07:33:22.992Z,10.48
2022-08-03T07:33:54.682Z,5.45
2022-08-03T07:34:27.445Z,7.40
2022-08-03T07:35:01.073Z,4.75
2022-08-03T07:35:33.941Z,7.75
2022-08-03T07:36:05.671Z,10.73
2022-08-03T07:36:37.361Z,14.30
2022-08-03T07:37:08.967Z,19.75
2022-08-03T07:37:40.539Z,6.53
2022-08-03T07:38:25.637Z,12.05
2022-08-03T07:38:58.183Z,12.13
2022-08-03T07:39:30.128Z,6.82
2022-08-03T07:40:02.667Z,8.35
2022-08-03T07:40:34.865Z,10.10
2022-08-03T07:41:06.466Z,5.70
2022-08-03T07:41:37.999Z,8.15
2022-08-03T07:42:12.906Z,7.13
2022-08-03T07:42:44.506Z,12.95
2022-08-03T07:43:17.596Z,10.00
2022-08-03T07:43:49.239Z,9.98
2022-08-03T07:44:21.422Z,6.18
2022-08-03T07:44:55.978Z,7.93
2022-08-03T07:45:27.713Z,12.20
2022-08-03T07:45:59.287Z,7.35
2022-08-03T07:46:30.974Z,9.00
2022-08-03T07:47:03.328Z,6.75